Terminal Aerodrome Forecast
Issued by NWS Portland, OR

Home | Current Version | Previous Version | Text Only | Print | Product List | Glossary On
Versions: 1 2 3 4 5 6 7 8 9 10 11 12 13
000
FTUS46 KPQR 201725
TAFHIO
TAF
KHIO 201725Z 2018/2118 VRB03KT P6SM SCT120 SCT200
     FM202000 20005KT P6SM FEW060 BKN100
     FM210300 20005KT P6SM BKN040 OVC090
     FM210700 19013KT P6SM -RA SCT030 OVC040
     FM211100 22008KT P6SM -SHRA BKN050=

USA.gov is the U.S. government's official web portal to all federal, state and local government web resources and services.